Latest Weather Observations for Albury

IDV60801

Issued at 12:02 pm EDT Friday 19 December 2014 (issued every 30 minutes, with the page automatically refreshed every 10 minutes)

About weather observations | Map of weather stations | Latest weather observations for VIC | Other Formats
Station Details ID: 072160 Name: ALBURY AIRPORT AWS Lat: -36.07 Lon: 146.95 Height: 163.5 m
Data from the previous 72 hours. | See also: Recent months at Albury
Date/Time
EDT
Temp
°C
App
Temp
°C
Dew
Point
Rel
Hum
%
Delta-T
°C
Wind Press
QNH
hPa
Press
MSL
hPa
Rain
since 9 am
mm
Dir
 
Spd
km/h
Gust
km/h
Spd
kts
Gust
kts
19/12:00pm 21.3 17.4 3.5 31 8.6 W 13 7 7 4 1014.3 1013.7 -
19/11:30am 20.4 16.4 2.7 31 8.3 SW 13 22 7 12 1014.3 1013.7 0.0
19/11:00am 20.0 16.6 1.9 30 8.4 WSW 9 20 5 11 1014.4 1013.8 0.0
19/10:30am 19.0 15.4 2.8 34 7.6 SW 11 19 6 10 1014.7 1014.1 0.0
19/10:00am 19.1 15.3 4.1 37 7.2 SW 13 26 7 14 1014.7 1014.1 0.0
19/09:30am 18.3 15.7 6.2 45 6.0 SE 9 15 5 8 1014.6 1014.0 0.0
19/09:00am 17.4 15.4 6.9 50 5.3 S 7 15 4 8 1014.5 1013.9 0.0
19/08:30am 15.8 13.5 7.3 57 4.2 W 9 15 5 8 1014.2 1013.6 0.0
19/08:00am 15.0 11.5 7.3 60 3.8 W 15 20 8 11 1014.0 1013.4 0.0
19/07:30am 13.8 11.4 6.9 63 3.4 W 9 11 5 6 1013.5 1012.9 0.0
19/07:00am 12.9 9.8 7.4 69 2.7 WSW 13 22 7 12 1013.0 1012.4 0.0
19/06:30am 11.8 7.9 7.3 74 2.2 W 17 22 9 12 1012.5 1011.9 0.0
19/05:30am 11.4 8.8 6.1 70 2.5 NNW 9 11 5 6 1012.1 1011.5 0.0
19/05:00am 12.4 10.3 6.7 68 2.7 W 7 9 4 5 1011.6 1011.0 0.0
19/04:30am 12.8 11.0 7.0 68 2.8 SW 6 9 3 5 1011.3 1010.7 0.0
19/04:00am 13.0 9.9 7.2 68 2.8 WSW 13 19 7 10 1011.3 1010.7 0.0
19/03:30am 12.7 10.0 7.4 70 2.6 WSW 11 15 6 8 1011.3 1010.7 0.0
19/03:00am 13.1 9.4 7.8 70 2.6 W 17 20 9 11 1011.4 1010.8 0.0
19/02:30am 12.4 9.7 7.3 71 2.5 W 11 15 6 8 1011.3 1010.7 0.0
19/02:00am 12.7 10.1 7.6 71 2.5 W 11 13 6 7 1011.2 1010.6 0.0
19/01:30am 14.0 11.0 7.5 65 3.2 W 13 17 7 9 1011.4 1010.8 0.0
19/01:00am 14.3 10.9 7.8 65 3.3 W 15 19 8 10 1011.4 1010.8 0.0
19/12:30am 14.7 11.7 7.5 62 3.6 WNW 13 17 7 9 1011.3 1010.7 0.0
19/12:00am 15.7 13.8 7.5 58 4.1 W 7 13 4 7 1011.2 1010.6 0.0
 
Date/Time
EDT
Temp
°C
App
Temp
°C
Dew
Point
Rel
Hum
%
Delta-T
°C
Wind Press
QNH
hPa
Press
MSL
hPa
Rain
since 9 am
mm
Dir
 
Spd
km/h
Gust
km/h
Spd
kts
Gust
kts
18/11:30pm 16.2 12.4 7.7 57 4.3 W 17 24 9 13 1010.9 1010.3 0.0
18/11:00pm 17.0 12.8 7.6 54 4.8 W 19 24 10 13 1011.0 1010.4 0.0
18/10:30pm 17.7 13.3 7.2 50 5.3 W 20 28 11 15 1010.9 1010.3 0.0
18/10:00pm 18.3 14.0 7.1 48 5.7 W 19 28 10 15 1010.7 1010.1 0.0
18/09:30pm 18.4 15.3 7.2 48 5.7 WSW 13 22 7 12 1010.3 1009.6 0.0
18/09:00pm 19.5 14.2 6.9 44 6.4 SW 24 39 13 21 1009.4 1008.7 0.0
18/08:30pm 21.1 13.3 5.1 35 7.9 WSW 35 54 19 29 1008.7 1008.1 0.0
18/08:27pm 21.4 13.6 4.9 34 8.2 WSW 35 54 19 29 1008.6 1008.0 0.0
18/08:00pm 23.6 16.7 2.4 25 10.2 W 28 43 15 23 1007.7 1007.1 0.0
18/07:30pm 24.6 17.3 2.7 24 10.7 W 30 43 16 23 1007.2 1006.6 0.0
18/07:00pm 25.4 17.9 3.4 24 10.9 W 32 50 17 27 1006.8 1006.2 0.0
18/06:30pm 25.6 18.5 3.5 24 11.0 W 30 50 16 27 1006.0 1005.4 0.0
18/06:24pm 25.9 18.8 3.8 24 11.1 WNW 30 48 16 26 1005.9 1005.3 0.0
18/06:00pm 25.9 19.1 3.2 23 11.3 W 28 39 15 21 1005.7 1005.1 0.0
18/05:53pm 26.1 19.4 3.4 23 11.3 W 28 46 15 25 1005.7 1005.1 0.0
18/05:30pm 26.3 19.1 2.9 22 11.6 W 30 41 16 22 1005.5 1004.9 0.0
18/05:00pm 27.4 20.6 3.2 21 12.1 W 28 37 15 20 1005.4 1004.8 0.0
18/04:30pm 27.7 19.8 1.2 18 12.8 W 32 44 17 24 1005.5 1004.9 0.0
18/04:00pm 28.2 22.0 2.4 19 12.8 W 24 39 13 21 1005.6 1005.0 0.0
18/03:36pm 27.4 20.0 1.8 19 12.5 WNW 30 48 16 26 1005.7 1005.1 0.0
18/03:30pm 27.6 20.0 2.6 20 12.4 W 32 48 17 26 1005.7 1005.1 0.0
18/03:27pm 26.9 19.4 1.3 19 12.3 W 30 48 16 26 1005.6 1005.0 0.0
18/03:00pm 27.3 20.6 1.7 19 12.5 W 26 43 14 23 1005.5 1004.9 0.0
18/02:30pm 27.3 20.3 1.7 19 12.5 W 28 41 15 22 1005.7 1005.1 0.0
18/02:00pm 29.0 22.6 3.1 19 13.1 WNW 26 39 14 21 1005.8 1005.2 0.0
18/01:30pm 28.5 22.3 1.9 18 13.1 WNW 24 35 13 19 1006.0 1005.4 0.0
18/01:00pm 27.4 21.8 3.2 21 12.1 W 22 35 12 19 1006.4 1005.8 0.0
18/12:30pm 26.8 21.4 2.7 21 11.9 W 20 30 11 16 1006.6 1006.0 0.0
18/12:00pm 26.6 21.9 3.2 22 11.7 W 17 28 9 15 1007.0 1006.4 0.0
18/11:30am 25.8 22.8 4.3 25 10.8 WSW 9 17 5 9 1007.1 1006.5 0.0
18/11:00am 24.6 20.7 3.3 25 10.5 WSW 13 19 7 10 1007.4 1006.8 0.0
18/10:30am 24.4 21.9 4.7 28 9.9 E 7 15 4 8 1007.8 1007.2 0.0
18/10:00am 22.6 20.1 6.4 35 8.3 E 9 13 5 7 1008.0 1007.4 0.0
18/09:30am 21.1 19.1 8.7 45 6.6 ESE 9 13 5 7 1008.3 1007.7 0.0
18/09:00am 19.2 17.5 8.5 50 5.6 ESE 7 13 4 7 1008.5 1007.9 0.0
18/08:30am 17.3 15.5 7.9 54 4.8 SE 7 11 4 6 1008.6 1008.0 0.0
18/08:00am 16.5 15.3 8.0 57 4.3 ESE 4 7 2 4 1008.6 1008.0 0.0
18/07:30am 14.5 12.6 6.8 60 3.8 SE 6 7 3 4 1008.7 1008.1 0.0
18/07:00am 13.1 12.2 6.2 63 3.3 CALM 0 0 0 0 1008.6 1008.0 0.0
18/06:30am 11.3 10.5 6.4 72 2.3 CALM 0 0 0 0 1008.2 1007.6 0.0
18/06:00am 10.6 8.5 5.8 72 2.2 E 6 7 3 4 1007.9 1007.3 0.0
18/05:30am 11.6 10.8 6.3 70 2.5 CALM 0 0 0 0 1007.5 1006.9 0.0
18/05:00am 12.0 10.8 6.3 68 2.7 ENE 2 6 1 3 1007.1 1006.5 0.0
18/04:30am 12.7 10.5 6.3 65 3.1 SE 7 9 4 5 1006.9 1006.3 0.0
18/04:00am 12.9 11.0 6.5 65 3.1 SSE 6 7 3 4 1006.8 1006.2 0.0
18/03:30am 13.0 11.5 6.6 65 3.1 SSE 4 7 2 4 1006.4 1005.8 0.0
18/03:00am 12.7 11.7 5.8 63 3.3 CALM 0 0 0 0 1006.5 1005.9 0.0
18/02:30am 14.0 11.8 6.1 59 3.8 SSE 7 9 4 5 1006.5 1005.9 0.0
18/02:00am 14.5 12.3 6.1 57 4.1 S 7 9 4 5 1006.6 1006.0 0.0
18/01:30am 13.9 12.8 5.0 55 4.2 CALM 0 0 0 0 1006.6 1006.0 0.0
18/01:00am 14.1 13.3 6.5 60 3.7 CALM 0 0 0 0 1006.5 1005.9 0.0
18/12:30am 14.6 13.3 4.3 50 4.8 CALM 0 6 0 3 1006.6 1006.0 0.0
18/12:00am 15.7 13.3 4.4 47 5.3 ESE 6 9 3 5 1006.8 1006.2 0.0
 
Date/Time
EDT
Temp
°C
App
Temp
°C
Dew
Point
Rel
Hum
%
Delta-T
°C
Wind Press
QNH
hPa
Press
MSL
hPa
Rain
since 9 am
mm
Dir
 
Spd
km/h
Gust
km/h
Spd
kts
Gust
kts
17/11:30pm 18.8 17.0 0.9 30 8.0 CALM 0 0 0 0 1006.8 1006.2 0.0
17/11:00pm 18.6 16.6 0.2 29 8.2 CALM 0 0 0 0 1007.0 1006.4 0.0
17/10:30pm 18.4 14.9 1.0 31 7.8 NNW 9 11 5 6 1007.0 1006.4 0.0
17/10:00pm 19.5 15.6 1.0 29 8.4 NNW 11 13 6 7 1007.0 1006.4 0.0
17/09:30pm 20.2 16.6 0.6 27 8.9 NNW 9 11 5 6 1006.8 1006.2 0.0
17/09:00pm 20.3 16.3 0.7 27 8.9 NW 11 13 6 7 1006.6 1006.0 0.0
17/08:30pm 20.7 16.3 0.5 26 9.1 WNW 13 15 7 8 1006.3 1005.7 0.0
17/08:00pm 23.0 17.8 0.2 22 10.5 WNW 17 22 9 12 1005.9 1005.3 0.0
17/07:30pm 24.1 19.2 -0.2 20 11.1 WNW 15 22 8 12 1005.6 1005.0 0.0
17/07:00pm 25.3 21.3 0.7 20 11.6 WNW 11 19 6 10 1005.3 1004.7 0.0
17/06:30pm 25.5 21.7 -0.5 18 12.0 NW 9 15 5 8 1005.0 1004.3 0.0
17/06:00pm 26.2 22.4 -0.8 17 12.5 W 9 22 5 12 1004.9 1004.2 0.0
17/05:30pm 25.7 21.1 -1.2 17 12.3 NW 13 22 7 12 1005.0 1004.3 0.0
17/05:00pm 26.1 21.0 0.7 19 12.1 SW 17 26 9 14 1005.3 1004.7 0.0
17/04:30pm 26.0 21.5 -0.1 18 12.2 W 13 24 7 13 1005.2 1004.6 0.0
17/04:00pm 25.5 21.4 -0.5 18 12.0 NW 11 20 6 11 1005.6 1005.0 0.0
17/03:30pm 25.3 20.5 0.0 19 11.8 SW 15 22 8 12 1005.7 1005.1 0.0
17/03:00pm 24.7 20.7 0.3 20 11.4 W 11 19 6 10 1006.2 1005.6 0.0
17/02:30pm 24.2 19.5 1.2 22 10.8 WSW 15 24 8 13 1006.6 1006.0 0.0
17/02:00pm 24.0 19.6 0.4 21 11.0 WSW 13 28 7 15 1006.8 1006.2 0.0
17/01:30pm 23.9 18.2 0.3 21 10.9 W 20 33 11 18 1006.8 1006.2 0.0
17/01:00pm 23.4 17.7 -0.8 20 10.9 WNW 19 35 10 19 1007.1 1006.5 0.0
17/12:30pm 22.3 16.9 -1.1 21 10.4 NW 17 32 9 17 1007.2 1006.6 0.0
17/12:00pm 22.2 18.3 1.3 25 9.7 WNW 11 24 6 13 1007.5 1006.9 0.0
17/11:30am 21.1 16.9 -0.8 23 9.7 SW 11 22 6 12 1007.5 1006.9 0.0
17/11:00am 20.2 16.1 0.1 26 9.0 W 11 20 6 11 1007.5 1006.9 0.0
17/10:30am 19.3 15.3 2.6 33 7.8 WNW 13 17 7 9 1007.3 1006.7 0.0
17/10:00am 18.6 14.7 3.3 36 7.2 WSW 13 19 7 10 1007.2 1006.6 0.0
17/09:30am 17.7 14.1 3.2 38 6.8 WSW 11 19 6 10 1007.2 1006.6 0.0
17/09:00am 16.8 13.6 2.8 39 6.4 WSW 9 17 5 9 1007.4 1006.8 0.0
17/08:30am 16.0 12.2 3.8 44 5.7 W 13 20 7 11 1007.3 1006.7 0.0
17/08:00am 15.3 11.1 3.8 46 5.3 WSW 15 20 8 11 1006.8 1006.2 0.0
17/07:30am 14.3 10.4 3.5 48 4.9 W 13 19 7 10 1006.7 1006.1 0.0
17/07:00am 13.4 10.3 3.5 51 4.5 WNW 9 13 5 7 1006.2 1005.6 0.0
17/06:30am 12.6 8.0 3.5 54 4.1 WSW 17 24 9 13 1005.5 1004.9 0.0
17/06:00am 12.0 8.1 3.5 56 3.8 WSW 13 24 7 13 1005.2 1004.6 0.0
17/05:30am 12.5 7.9 3.5 54 4.0 WSW 17 24 9 13 1004.8 1004.1 0.0
17/05:00am 12.5 7.8 3.2 53 4.2 WSW 17 26 9 14 1004.8 1004.1 0.0
17/04:30am 13.0 7.9 3.1 51 4.4 W 19 28 10 15 1004.5 1003.8 0.0
17/04:00am 13.3 8.2 2.8 49 4.7 W 19 32 10 17 1004.4 1003.7 0.0
17/03:30am 13.8 8.6 3.6 50 4.6 W 20 28 11 15 1004.2 1003.5 0.0
17/03:00am 14.4 9.6 2.6 45 5.3 WSW 17 28 9 15 1004.3 1003.6 0.0
17/02:30am 15.0 10.6 2.5 43 5.6 WSW 15 26 8 14 1004.0 1003.3 0.0
17/02:00am 15.0 11.1 3.2 45 5.4 W 13 22 7 12 1003.7 1003.0 0.0
17/01:30am 16.3 11.6 3.4 42 6.0 WSW 17 24 9 13 1003.7 1003.0 0.0
17/01:00am 17.1 11.9 3.4 40 6.4 WSW 20 30 11 16 1003.6 1002.9 0.0
17/12:30am 18.1 12.1 3.6 38 6.8 WSW 24 35 13 19 1003.2 1002.5 0.0
17/12:00am 19.3 12.4 6.4 43 6.5 WSW 32 41 17 22 1002.7 1002.1 0.0
 
Date/Time
EDT
Temp
°C
App
Temp
°C
Dew
Point
Rel
Hum
%
Delta-T
°C
Wind Press
QNH
hPa
Press
MSL
hPa
Rain
since 9 am
mm
Dir
 
Spd
km/h
Gust
km/h
Spd
kts
Gust
kts
16/11:30pm 20.3 15.1 5.5 38 7.4 W 22 30 12 16 1001.9 1001.3 0.0
16/11:00pm 21.1 14.3 5.1 35 8.0 W 30 44 16 24 1001.3 1000.7 0.0
16/10:30pm 22.0 14.9 8.2 41 7.3 WSW 35 50 19 27 1001.2 1000.6 0.0
16/10:00pm 23.2 16.2 8.5 39 7.9 WSW 35 56 19 30 1000.5 999.9 0.0
16/09:33pm 25.6 18.8 6.7 30 9.9 W 32 50 17 27 999.6 998.9 0.0
16/09:30pm 25.8 18.9 6.4 29 10.2 W 32 43 17 23 999.3 998.6 0.0
16/09:00pm 28.0 20.9 3.7 21 12.4 W 30 50 16 27 998.3 997.6 0.0
16/08:59pm 28.1 21.3 3.0 20 12.6 W 28 50 15 27 998.2 997.5 0.0
16/08:30pm 28.9 22.2 1.4 17 13.5 W 26 39 14 21 997.5 996.8 0.0
16/08:00pm 29.8 21.7 -0.5 14 14.5 W 32 44 17 24 997.1 996.4 0.0
16/07:30pm 30.7 23.4 0.2 14 14.8 W 28 41 15 22 996.5 995.9 0.0
16/07:00pm 31.8 23.3 1.0 14 15.4 WNW 35 48 19 26 995.8 995.2 0.0
16/06:30pm 33.0 24.5 0.9 13 16.0 WNW 35 56 19 30 995.6 995.0 0.0
16/06:05pm 32.8 24.7 0.8 13 15.9 WNW 33 52 18 28 995.4 994.8 0.0
16/06:00pm 33.4 24.6 1.3 13 16.3 W 37 52 20 28 995.3 994.7 0.0
16/05:30pm 33.7 24.0 0.4 12 16.5 WNW 41 57 22 31 995.5 994.9 0.0
16/05:00pm 33.5 24.1 0.2 12 16.6 WNW 39 59 21 32 995.7 995.1 0.0
16/04:47pm 33.8 25.6 0.5 12 16.6 WNW 33 61 18 33 995.4 994.8 0.0
16/04:45pm 34.5 26.0 1.0 12 16.9 WNW 35 50 19 27 995.7 995.1 0.0
16/04:40pm 34.6 25.4 1.1 12 16.9 WNW 39 65 21 35 995.7 995.1 0.0
16/04:35pm 34.1 26.0 0.7 12 16.7 NW 33 65 18 35 995.8 995.2 0.0
16/04:32pm 34.4 26.7 -0.3 11 17.1 NW 30 65 16 35 995.5 994.9 0.0
16/04:31pm 34.3 27.7 1.9 13 16.5 NW 26 46 14 25 995.7 995.1 0.0
16/04:30pm 34.3 27.5 0.8 12 16.8 NW 26 46 14 25 995.7 995.1 0.0
16/04:00pm 34.1 27.3 -1.8 10 17.4 WNW 24 41 13 22 996.3 995.7 0.0
16/03:30pm 33.5 27.4 0.2 12 16.5 NW 22 32 12 17 996.8 996.1 0.0
16/03:00pm 32.9 24.6 -1.4 11 16.5 W 32 44 17 24 997.6 996.9 0.0
16/02:32pm 32.9 25.2 -2.7 10 16.7 WNW 28 48 15 26 997.7 997.0 0.0
16/02:30pm 33.1 25.8 -0.1 12 16.3 WNW 28 43 15 23 997.8 997.1 0.0
16/02:04pm 32.7 24.2 -2.9 10 16.6 WNW 32 50 17 27 997.9 997.2 0.0
16/02:00pm 32.8 23.8 -2.8 10 16.8 WNW 35 50 19 27 998.0 997.3 0.0
16/01:30pm 32.6 23.2 -5.9 8 17.1 WNW 35 54 19 29 997.9 997.2 0.0
16/01:00pm 32.2 23.9 -2.0 11 16.3 WNW 32 56 17 30 997.9 997.2 0.0
16/12:57pm 32.4 25.2 0.5 13 15.7 WNW 28 52 15 28 998.0 997.3 0.0
16/12:30pm 31.6 25.2 5.2 19 14.0 WNW 28 44 15 24 997.8 997.1 0.0

Other Formats:

Comma delimited format used in spreadsheet applications
http://www.bom.gov.au/fwo/IDV60801/IDV60801.95896.axf

JavaScript Object Notation format (JSON) in row-major order
http://www.bom.gov.au/fwo/IDV60801/IDV60801.95896.json